Huvudsida
METAR-TAF:

METAR-TAF

Flygplatser :

Ponta Delgada, Azorerna, Portugal

latitud: 37-44N, longitud: 025-42W, höjd: 71 m

Aktuellt väderrapport

Denna rapport gjordes för 18 minuter sedan, klockan 01:00 UTC
Vind 7 kt från nord/nordväst
Temperatur 13°C
Fuktighet 72%
Tryck 1024 hPa
Sikt 10 km eller mer
Få moln på en höjd av 2500 ft

METAR: LPPD 230100Z 34007KT 9999 FEW025 13/08 Q1024

Tid: 01:18 (01:18 UTC)

Väderprognos

Denna rapport gjordes för 2 timmar och 18 minuter sedan, klockan 23:00 UTC
Prognos gäller från 23 kl. 00 UTC till 23 kl. 24 UTC
Vind 10 kt från nord
Sikt 10 km eller mer
Få moln på en höjd av 2500 ft
Temporärt
från 23 kl. 00 UTC till 23 kl. 22 UTC
Spridda moln på en höjd av 2000 ft
Brutna moln på en höjd av 4000 ft
Blir
från 23 kl. 22 UTC till 23 kl. 24 UTC
Vind 10 kt från nordväst
Spridda moln på en höjd av 600 ft
Brutna moln på en höjd av 1500 ft

TAF: LPPD 222300Z 2300/2324 36010KT 9999 FEW025 TEMPO 2300/2322 SCT020 BKN040 BECMG 2322/2324 32010KT SCT006 BKN015

Aktuella väderrapporter och prognoser från 4000 flygplatser (METAR- och TAF-rapporter).

De tillgängliga stationerna syns som gula och röda prickar på kartan.

För musen över prickarna för att se namnen på stationerna.

Klicka sedan för att få väderrapporter och prognoser.

För att ändra kartan: Klicka på de gröna knapparna med ett svart kors på för att zooma in; den gröna knappen med ett streck på för att zooma ut; eller på de gröna pilarna för angränsande kartor.


METAR-TAF: